createdAt,value
2019-03-15T00:01:43.390Z,30.65
2019-03-15T00:04:14.203Z,29.30
2019-03-15T00:06:45.110Z,25.68
2019-03-15T00:09:15.998Z,26.55
2019-03-15T00:11:46.805Z,27.55
2019-03-15T00:14:17.656Z,28.77
2019-03-15T00:16:48.414Z,29.07
2019-03-15T00:19:19.358Z,27.80
2019-03-15T00:21:50.983Z,28.10
2019-03-15T00:24:21.779Z,31.25
2019-03-15T00:26:52.573Z,28.77
2019-03-15T00:29:23.504Z,26.87
2019-03-15T00:31:55.356Z,25.08
2019-03-15T00:34:26.228Z,27.22
2019-03-15T00:36:57.034Z,26.48
2019-03-15T00:39:27.858Z,30.08
2019-03-15T00:41:58.647Z,27.07
2019-03-15T00:44:29.428Z,25.95
2019-03-15T00:47:00.227Z,26.60
2019-03-15T00:49:32.112Z,26.57
2019-03-15T00:52:02.930Z,31.42
2019-03-15T00:54:33.749Z,28.10
2019-03-15T00:57:05.608Z,26.95
2019-03-15T00:59:36.418Z,31.23
2019-03-15T01:02:07.192Z,28.02
2019-03-15T01:04:38.028Z,35.05
2019-03-15T01:07:08.928Z,30.35
2019-03-15T01:09:40.831Z,25.65
2019-03-15T01:12:11.715Z,27.85
2019-03-15T01:14:42.618Z,29.07
2019-03-15T01:17:14.522Z,31.75
2019-03-15T01:19:45.346Z,30.95
2019-03-15T01:22:16.998Z,28.30
2019-03-15T01:24:47.794Z,30.57
2019-03-15T01:27:18.645Z,30.57
2019-03-15T01:29:49.621Z,30.12
2019-03-15T01:32:20.435Z,29.25
2019-03-15T01:34:51.281Z,32.95
2019-03-15T01:37:22.084Z,33.05
2019-03-15T01:39:52.914Z,31.07
2019-03-15T01:42:23.718Z,32.70
2019-03-15T01:44:54.582Z,34.73
2019-03-15T01:47:25.443Z,28.47
2019-03-15T01:49:56.249Z,34.18
2019-03-15T01:52:27.051Z,28.90
2019-03-15T01:54:57.943Z,33.70
2019-03-15T01:57:28.847Z,34.18
2019-03-15T01:59:59.714Z,34.75
2019-03-15T02:02:30.535Z,32.23
2019-03-15T02:05:01.406Z,31.48
2019-03-15T02:07:32.279Z,33.35
2019-03-15T02:10:03.609Z,31.93
2019-03-15T02:12:34.411Z,31.82
2019-03-15T02:15:09.340Z,29.52
2019-03-15T02:17:40.148Z,30.77
2019-03-15T02:20:10.984Z,32.65
2019-03-15T02:22:42.804Z,33.00
2019-03-15T02:25:13.635Z,25.15
2019-03-15T02:27:44.558Z,29.90
2019-03-15T02:30:21.546Z,31.57
2019-03-15T02:32:53.266Z,31.55
2019-03-15T02:35:24.111Z,31.55
2019-03-15T02:37:54.908Z,30.85
2019-03-15T02:40:25.783Z,29.82
2019-03-15T02:42:56.609Z,28.75
2019-03-15T02:45:27.476Z,35.40
2019-03-15T02:47:58.324Z,32.28
2019-03-15T02:50:29.426Z,30.70
2019-03-15T02:53:00.614Z,31.02
2019-03-15T02:55:31.473Z,32.08
2019-03-15T02:58:02.401Z,31.20
2019-03-15T03:00:33.259Z,34.27
2019-03-15T03:03:04.064Z,35.48
2019-03-15T03:05:34.999Z,33.88
2019-03-15T03:08:05.930Z,29.42
2019-03-15T03:10:36.791Z,35.00
2019-03-15T03:13:08.652Z,37.42
2019-03-15T03:15:39.593Z,32.88
2019-03-15T03:18:10.534Z,37.50
2019-03-15T03:20:41.409Z,33.70
2019-03-15T03:23:14.108Z,32.23
2019-03-15T03:25:45.046Z,30.50
2019-03-15T03:28:15.836Z,35.73
2019-03-15T03:30:47.165Z,34.05
2019-03-15T03:33:18.280Z,30.68
2019-03-15T03:35:49.106Z,39.48
2019-03-15T03:38:19.920Z,37.60
2019-03-15T03:40:50.845Z,37.73
2019-03-15T03:43:21.592Z,37.40
2019-03-15T03:45:52.496Z,34.23
2019-03-15T03:48:23.283Z,38.40
2019-03-15T03:50:54.129Z,38.05
2019-03-15T03:53:25.877Z,38.53
2019-03-15T03:56:01.338Z,38.98
2019-03-15T03:58:39.281Z,39.48
2019-03-15T04:01:09.343Z,37.60
2019-03-15T04:03:44.830Z,35.17
2019-03-15T04:06:15.671Z,36.45
2019-03-15T04:08:48.132Z,34.20
2019-03-15T04:11:19.319Z,37.30
2019-03-15T04:13:51.731Z,37.08
2019-03-15T04:16:22.783Z,36.40
2019-03-15T04:18:55.965Z,33.78
2019-03-15T04:21:28.485Z,37.73
2019-03-15T04:24:00.084Z,37.88
2019-03-15T04:26:32.878Z,40.23
2019-03-15T04:29:03.658Z,33.70
2019-03-15T04:31:34.770Z,35.73
2019-03-15T04:34:05.903Z,36.63
2019-03-15T04:36:36.833Z,40.17
2019-03-15T04:39:08.084Z,38.92
2019-03-15T04:41:40.627Z,44.67
2019-03-15T04:44:17.833Z,43.78
2019-03-15T04:46:48.687Z,46.53
2019-03-15T04:49:19.505Z,37.03
2019-03-15T04:51:50.435Z,40.70
2019-03-15T04:54:21.216Z,39.50
2019-03-15T04:56:54.701Z,38.33
2019-03-15T04:59:26.957Z,33.02
2019-03-15T05:01:59.559Z,31.57
2019-03-15T05:04:30.419Z,35.98
2019-03-15T05:07:01.433Z,35.63
2019-03-15T05:09:32.392Z,33.28
2019-03-15T05:12:06.467Z,37.88
2019-03-15T05:14:39.034Z,37.17
2019-03-15T05:17:09.961Z,29.63
2019-03-15T05:19:40.913Z,43.80
2019-03-15T05:22:11.847Z,39.95
2019-03-15T05:24:43.883Z,36.95
2019-03-15T05:27:14.952Z,39.10
2019-03-15T05:29:47.939Z,38.73
2019-03-15T05:32:18.830Z,36.13
2019-03-15T05:34:50.740Z,34.73
2019-03-15T05:37:26.159Z,35.28
2019-03-15T05:39:58.608Z,36.00
2019-03-15T05:42:32.115Z,39.92
2019-03-15T05:47:35.972Z,36.83
2019-03-15T05:50:15.055Z,33.45
2019-03-15T05:52:46.343Z,41.63
2019-03-15T05:55:17.318Z,40.30
2019-03-15T05:57:48.299Z,34.55
2019-03-15T06:00:22.755Z,43.68
2019-03-15T06:02:54.892Z,38.08
2019-03-15T06:05:26.877Z,39.73
2019-03-15T06:07:58.024Z,41.80
2019-03-15T06:10:30.057Z,40.50
2019-03-15T06:13:01.400Z,43.80
2019-03-15T06:15:32.478Z,40.52
2019-03-15T06:18:06.755Z,43.53
2019-03-15T06:20:37.696Z,36.73
2019-03-15T06:23:08.650Z,36.50
2019-03-15T06:25:43.336Z,30.92
2019-03-15T06:28:14.446Z,34.78
2019-03-15T06:30:47.213Z,30.55
2019-03-15T06:33:19.754Z,37.08
2019-03-15T06:35:50.867Z,32.95
2019-03-15T06:38:33.498Z,31.07
2019-03-15T06:41:00.352Z,37.28
2019-03-15T06:43:31.613Z,40.90
2019-03-15T06:46:02.596Z,30.27
2019-03-15T06:48:33.977Z,36.65
2019-03-15T06:51:09.112Z,37.90
2019-03-15T06:53:38.672Z,32.75
2019-03-15T06:56:09.650Z,29.02
2019-03-15T06:58:40.701Z,36.08
2019-03-15T07:01:13.313Z,34.05
2019-03-15T07:03:44.459Z,32.88
2019-03-15T07:06:15.495Z,28.83
2019-03-15T07:08:46.440Z,33.08
2019-03-15T07:11:17.938Z,32.55
2019-03-15T07:13:48.980Z,34.35
2019-03-15T07:16:19.998Z,35.23
2019-03-15T07:18:51.025Z,34.65
2019-03-15T07:21:22.182Z,35.88
2019-03-15T07:23:53.057Z,35.20
2019-03-15T07:26:26.359Z,31.50
2019-03-15T07:28:57.544Z,36.28
2019-03-15T07:31:28.526Z,35.10
2019-03-15T07:33:59.774Z,30.60
2019-03-15T07:36:30.846Z,33.55
2019-03-15T07:39:01.955Z,31.37
2019-03-15T07:41:33.114Z,32.70
2019-03-15T07:44:04.290Z,31.68
2019-03-15T07:46:35.430Z,28.95
2019-03-15T07:49:07.390Z,38.48
2019-03-15T07:51:38.985Z,30.45
2019-03-15T07:54:11.482Z,33.10
2019-03-15T07:56:42.765Z,31.30
2019-03-15T07:59:14.218Z,28.30
2019-03-15T08:01:45.181Z,28.47
2019-03-15T08:04:19.785Z,27.85
2019-03-15T08:06:50.771Z,32.98
2019-03-15T08:09:21.917Z,28.23
2019-03-15T08:11:53.084Z,31.77
2019-03-15T08:14:24.178Z,25.52
2019-03-15T08:16:55.353Z,24.23
2019-03-15T08:19:26.944Z,24.12
2019-03-15T08:21:58.115Z,26.68
2019-03-15T08:24:51.047Z,21.97
2019-03-15T08:27:16.402Z,28.40
2019-03-15T08:29:47.712Z,25.48
2019-03-15T08:32:18.794Z,22.98
2019-03-15T08:34:49.878Z,22.55
2019-03-15T08:37:20.862Z,26.50
2019-03-15T08:39:51.816Z,28.05
2019-03-15T08:42:22.881Z,27.02
2019-03-15T08:44:54.973Z,24.20
2019-03-15T08:47:25.928Z,29.32
2019-03-15T08:49:57.067Z,28.60
2019-03-15T08:52:28.089Z,25.88
2019-03-15T08:55:05.171Z,28.00
2019-03-15T08:57:32.029Z,30.45
2019-03-15T09:00:03.572Z,27.32
2019-03-15T09:02:34.685Z,25.35
2019-03-15T09:05:08.463Z,31.55
2019-03-15T09:07:39.783Z,29.05
2019-03-15T09:10:22.558Z,29.98
2019-03-15T09:12:50.695Z,27.80
2019-03-15T09:15:24.823Z,23.87
2019-03-15T09:17:58.416Z,25.35
2019-03-15T09:20:30.602Z,21.45
2019-03-15T09:23:02.249Z,23.50
2019-03-15T09:25:35.241Z,27.52
2019-03-15T09:28:07.198Z,31.70
2019-03-15T09:30:42.063Z,31.55
2019-03-15T09:33:14.943Z,23.75
2019-03-15T09:35:48.728Z,24.67
2019-03-15T09:38:19.767Z,25.65
2019-03-15T09:40:50.825Z,30.25
2019-03-15T09:43:26.442Z,21.13
2019-03-15T09:45:59.053Z,26.42
2019-03-15T09:48:33.575Z,25.52
2019-03-15T09:51:07.863Z,25.40
2019-03-15T09:53:41.583Z,25.10
2019-03-15T09:56:13.226Z,26.60
2019-03-15T09:58:48.896Z,24.98
2019-03-15T10:01:34.362Z,31.10
2019-03-15T10:03:52.728Z,26.40
2019-03-15T10:06:29.159Z,27.30
2019-03-15T10:08:56.736Z,26.75
2019-03-15T10:11:33.546Z,22.87
2019-03-15T10:14:06.688Z,24.00
2019-03-15T10:16:38.427Z,26.40
2019-03-15T10:19:09.988Z,24.07
2019-03-15T10:21:42.740Z,24.27
2019-03-15T10:24:18.457Z,24.50
2019-03-15T10:26:49.886Z,23.85
2019-03-15T10:29:29.555Z,23.22
2019-03-15T10:32:03.252Z,22.30
2019-03-15T10:34:37.701Z,25.05
2019-03-15T10:37:10.751Z,24.32
2019-03-15T10:39:41.790Z,26.05
2019-03-15T10:42:13.088Z,22.27
2019-03-15T10:44:44.244Z,26.57
2019-03-15T10:47:19.908Z,24.65
2019-03-15T10:49:56.093Z,22.22
2019-03-15T10:52:30.708Z,24.00
2019-03-15T10:55:01.903Z,24.52
2019-03-15T10:57:34.687Z,29.05
2019-03-15T11:00:21.272Z,20.05
2019-03-15T11:02:55.432Z,24.87
2019-03-15T11:05:29.225Z,23.65
2019-03-15T11:08:04.853Z,35.45
2019-03-15T11:10:36.154Z,22.90
2019-03-15T11:13:08.025Z,23.02
2019-03-15T11:15:40.844Z,26.68
2019-03-15T11:18:14.719Z,23.65
2019-03-15T11:20:47.470Z,24.35
2019-03-15T11:23:21.279Z,25.65
2019-03-15T11:25:56.852Z,21.57
2019-03-15T11:28:28.567Z,27.60
2019-03-15T11:31:00.904Z,22.70
2019-03-15T11:33:35.214Z,19.45
2019-03-15T11:36:06.487Z,29.65
2019-03-15T11:38:37.822Z,23.47
2019-03-15T11:41:08.876Z,21.85
2019-03-15T11:43:39.990Z,24.80
2019-03-15T11:46:11.057Z,24.05
2019-03-15T11:48:42.341Z,18.98
2019-03-15T11:51:13.523Z,27.42
2019-03-15T11:53:44.525Z,25.48
2019-03-15T11:56:26.515Z,23.95
2019-03-15T11:58:48.438Z,25.25
2019-03-15T12:01:19.456Z,22.80
2019-03-15T12:03:53.282Z,25.90
2019-03-15T12:06:23.674Z,21.50
2019-03-15T12:08:55.142Z,23.07
2019-03-15T12:11:26.159Z,20.37
2019-03-15T12:13:57.168Z,22.55
2019-03-15T12:16:28.201Z,22.70
2019-03-15T12:18:59.285Z,24.65
2019-03-15T12:21:30.248Z,22.32
2019-03-15T12:24:01.373Z,23.02
2019-03-15T12:26:40.245Z,27.93
2019-03-15T12:29:36.570Z,21.80
2019-03-15T12:31:42.058Z,24.52
2019-03-15T12:34:19.508Z,23.92
2019-03-15T12:36:53.489Z,23.40
2019-03-15T12:39:27.722Z,22.62
2019-03-15T12:42:07.147Z,22.02
2019-03-15T12:44:38.227Z,22.62
2019-03-15T12:47:11.958Z,26.07
2019-03-15T12:49:43.130Z,21.77
2019-03-15T12:52:23.406Z,22.67
2019-03-15T12:54:56.219Z,21.97
2019-03-15T12:57:27.363Z,28.45
2019-03-15T13:00:00.268Z,23.50
2019-03-15T13:02:34.666Z,18.87
2019-03-15T13:05:05.879Z,18.57
2019-03-15T13:07:39.645Z,21.52
2019-03-15T13:10:19.990Z,21.27
2019-03-15T13:12:51.249Z,19.60
2019-03-15T13:15:22.210Z,18.52
2019-03-15T13:17:55.770Z,23.07
2019-03-15T13:20:30.803Z,22.35
2019-03-15T13:23:03.626Z,21.82
2019-03-15T13:25:37.364Z,20.60
2019-03-15T13:28:09.677Z,20.43
2019-03-15T13:30:41.016Z,17.87
2019-03-15T13:33:22.097Z,17.07
2019-03-15T13:35:59.133Z,28.65
2019-03-15T13:38:31.774Z,21.65
2019-03-15T13:41:05.092Z,24.87
2019-03-15T13:43:38.974Z,20.82
2019-03-15T13:46:12.753Z,20.92
2019-03-15T13:48:43.886Z,21.68
2019-03-15T13:51:15.007Z,24.23
2019-03-15T13:53:49.176Z,22.17
2019-03-15T13:56:20.368Z,28.77
2019-03-15T13:58:57.022Z,21.82
2019-03-15T14:01:24.440Z,22.05
2019-03-15T14:03:55.484Z,25.17
2019-03-15T14:06:26.734Z,24.07
2019-03-15T14:08:57.760Z,22.77
2019-03-15T14:14:39.027Z,22.87
2019-03-15T14:17:10.223Z,21.15
2019-03-15T14:19:50.281Z,20.82
2019-03-15T14:22:22.537Z,21.17
2019-03-15T14:24:54.177Z,17.17
2019-03-15T14:27:36.946Z,24.80
2019-03-15T14:32:29.694Z,20.65
2019-03-15T14:38:05.856Z,24.57
2019-03-15T14:40:40.038Z,23.32
2019-03-15T14:43:11.145Z,24.90
2019-03-15T14:45:42.239Z,26.82
2019-03-15T14:48:13.373Z,29.55
2019-03-15T14:50:44.460Z,25.62
2019-03-15T14:53:15.542Z,29.50
2019-03-15T14:55:46.971Z,29.92
2019-03-15T14:58:19.601Z,31.42
2019-03-15T15:01:05.261Z,32.40
2019-03-15T15:03:39.069Z,24.95
2019-03-15T15:06:10.104Z,31.33
2019-03-15T15:12:10.671Z,37.30
2019-03-15T15:18:01.724Z,28.67
2019-03-15T15:20:32.936Z,26.20
2019-03-15T15:23:06.057Z,31.42
2019-03-15T15:25:37.183Z,29.32
2019-03-15T15:28:08.429Z,27.22
2019-03-15T15:30:39.480Z,35.68
2019-03-15T15:33:10.784Z,31.17
2019-03-15T15:35:44.067Z,32.03
2019-03-15T15:38:15.534Z,40.75
2019-03-15T15:40:47.010Z,35.85
2019-03-15T15:43:18.092Z,32.75
2019-03-15T15:45:49.285Z,30.90
2019-03-15T15:48:20.553Z,35.43
2019-03-15T15:50:51.774Z,31.42
2019-03-15T15:53:22.878Z,28.67
2019-03-15T15:55:54.008Z,31.62
2019-03-15T15:58:25.136Z,32.90
2019-03-15T16:00:56.189Z,31.85
2019-03-15T16:03:27.101Z,36.15
2019-03-15T16:05:58.248Z,32.48
2019-03-15T16:11:01.996Z,28.07
2019-03-15T16:13:33.169Z,29.65
2019-03-15T16:16:04.178Z,30.25
2019-03-15T16:18:35.279Z,32.95
2019-03-15T16:21:06.459Z,31.45
2019-03-15T16:23:38.700Z,33.88
2019-03-15T16:26:09.907Z,26.02
2019-03-15T16:28:40.908Z,36.48
2019-03-15T16:31:12.041Z,34.92
2019-03-15T16:33:43.252Z,32.70
2019-03-15T16:36:15.458Z,36.77
2019-03-15T16:38:46.832Z,38.63
2019-03-15T16:41:17.923Z,40.17
2019-03-15T16:43:49.028Z,44.75
2019-03-15T16:46:20.263Z,41.68
2019-03-15T16:49:01.732Z,40.30
2019-03-15T16:51:33.950Z,43.00
2019-03-15T16:54:04.979Z,45.85
2019-03-15T16:56:39.705Z,50.67
2019-03-15T16:59:13.934Z,49.90
2019-03-15T17:01:45.674Z,47.90
2019-03-15T17:04:16.796Z,47.85
2019-03-15T17:06:47.860Z,46.45
2019-03-15T17:09:21.427Z,51.10
2019-03-15T17:11:54.186Z,53.37
2019-03-15T17:14:26.117Z,51.97
2019-03-15T17:16:57.436Z,55.05
2019-03-15T17:19:30.731Z,56.75
2019-03-15T17:22:04.932Z,57.10
2019-03-15T17:24:39.732Z,55.28
2019-03-15T17:27:11.973Z,59.93
2019-03-15T17:29:43.310Z,61.42
2019-03-15T17:32:15.883Z,59.27
2019-03-15T17:38:00.694Z,61.68
2019-03-15T17:40:32.214Z,62.98
2019-03-15T17:43:05.900Z,62.38
2019-03-15T17:45:41.421Z,64.55
2019-03-15T17:48:14.787Z,69.15
2019-03-15T17:50:45.887Z,65.52
2019-03-15T17:53:16.827Z,63.17
2019-03-15T17:55:49.637Z,64.72
2019-03-15T17:58:21.703Z,65.10
2019-03-15T18:00:55.175Z,66.60
2019-03-15T18:03:26.337Z,68.92
2019-03-15T18:05:59.034Z,69.40
2019-03-15T18:08:33.372Z,71.72
2019-03-15T18:11:05.396Z,70.30
2019-03-15T18:13:40.713Z,69.87
2019-03-15T18:16:11.825Z,72.53
2019-03-15T18:18:44.765Z,77.05
2019-03-15T18:21:15.864Z,74.80
2019-03-15T18:23:54.383Z,78.05
2019-03-15T18:26:30.174Z,71.55
2019-03-15T18:29:04.105Z,73.02
2019-03-15T18:31:35.268Z,68.92
2019-03-15T18:34:06.648Z,77.82
2019-03-15T18:36:42.868Z,69.22
2019-03-15T18:39:19.938Z,68.55
2019-03-15T18:41:52.057Z,71.53
2019-03-15T18:44:27.392Z,68.28
2019-03-15T18:46:58.455Z,61.18
2019-03-15T18:49:29.599Z,58.78
2019-03-15T18:52:01.188Z,61.37
2019-03-15T18:54:32.966Z,57.30
2019-03-15T18:57:05.181Z,54.18
2019-03-15T18:59:40.251Z,60.33
2019-03-15T19:02:11.758Z,58.98
2019-03-15T19:04:44.714Z,60.20
2019-03-15T19:07:18.579Z,61.37
2019-03-15T19:09:49.536Z,65.52
2019-03-15T19:12:22.081Z,65.30
2019-03-15T19:14:53.079Z,65.90
2019-03-15T19:17:25.094Z,58.87
2019-03-15T19:20:03.451Z,56.40
2019-03-15T19:22:36.222Z,47.85
2019-03-15T19:25:11.883Z,61.18
2019-03-15T19:27:42.878Z,59.30
2019-03-15T19:30:19.930Z,53.80
2019-03-15T19:32:52.547Z,53.87
2019-03-15T19:35:27.071Z,62.43
2019-03-15T19:38:02.455Z,50.45
2019-03-15T19:40:34.324Z,61.88
2019-03-15T19:43:07.287Z,55.08
2019-03-15T19:45:39.087Z,60.15
2019-03-15T19:48:10.161Z,58.58
2019-03-15T19:50:48.729Z,57.80
2019-03-15T19:53:21.294Z,55.85
2019-03-15T19:55:52.421Z,50.77
2019-03-15T19:58:25.859Z,57.45
2019-03-15T20:01:00.243Z,53.38
2019-03-15T20:03:43.573Z,51.92
2019-03-15T20:06:03.827Z,59.13
2019-03-15T20:08:39.307Z,58.02
2019-03-15T20:11:10.358Z,56.75
2019-03-15T20:13:41.627Z,58.33
2019-03-15T20:16:15.879Z,59.23
2019-03-15T20:18:46.894Z,58.00
2019-03-15T20:21:19.462Z,48.58
2019-03-15T20:23:50.475Z,58.13
2019-03-15T20:26:23.791Z,54.85
2019-03-15T20:28:58.437Z,54.20
2019-03-15T20:31:36.524Z,54.35
2019-03-15T20:34:10.452Z,55.05
2019-03-15T20:36:46.164Z,57.78
2019-03-15T20:39:22.547Z,61.13
2019-03-15T20:41:57.745Z,52.95
2019-03-15T20:44:30.667Z,58.83
2019-03-15T20:47:03.414Z,56.90
2019-03-15T20:49:52.717Z,60.52
2019-03-15T20:52:25.337Z,61.63
2019-03-15T20:54:56.271Z,58.80
2019-03-15T20:57:29.933Z,61.18
2019-03-15T21:00:00.871Z,52.90
2019-03-15T21:02:32.015Z,53.17
2019-03-15T21:05:08.034Z,53.58
2019-03-15T21:07:43.787Z,53.48
2019-03-15T21:10:17.113Z,50.67
2019-03-15T21:12:48.192Z,51.70
2019-03-15T21:15:19.102Z,49.60
2019-03-15T21:17:50.237Z,49.77
2019-03-15T21:20:29.590Z,51.20
2019-03-15T21:23:03.733Z,50.15
2019-03-15T21:25:38.026Z,43.83
2019-03-15T21:28:10.319Z,55.88
2019-03-15T21:30:48.492Z,55.70
2019-03-15T21:33:16.885Z,48.13
2019-03-15T21:35:51.567Z,52.33
2019-03-15T21:38:23.039Z,51.55
2019-03-15T21:40:58.232Z,45.48
2019-03-15T21:46:01.858Z,44.55
2019-03-15T21:48:32.651Z,47.13
2019-03-15T21:51:03.702Z,47.10
2019-03-15T21:53:34.804Z,49.73
2019-03-15T21:56:07.857Z,51.33
2019-03-15T21:58:38.825Z,52.95
2019-03-15T22:01:12.583Z,48.58
2019-03-15T22:03:45.235Z,52.67
2019-03-15T22:06:16.147Z,48.60
2019-03-15T22:08:47.087Z,49.08
2019-03-15T22:11:21.315Z,54.63
2019-03-15T22:13:50.709Z,53.38
2019-03-15T22:16:27.051Z,50.38
2019-03-15T22:18:57.954Z,50.25
2019-03-15T22:21:28.869Z,49.73
2019-03-15T22:23:59.741Z,47.93
2019-03-15T22:26:33.518Z,51.88
2019-03-15T22:29:04.331Z,53.02
2019-03-15T22:31:35.371Z,52.23
2019-03-15T22:34:06.264Z,40.73
2019-03-15T22:36:37.124Z,49.25
2019-03-15T22:39:08.151Z,49.93
2019-03-15T22:41:39.072Z,44.83
2019-03-15T22:44:10.719Z,48.20
2019-03-15T22:46:41.726Z,50.55
2019-03-15T22:49:12.607Z,47.73
2019-03-15T22:51:43.625Z,47.10
2019-03-15T22:54:14.547Z,47.48
2019-03-15T22:56:45.465Z,47.60
2019-03-15T22:59:16.287Z,39.78
2019-03-15T23:01:47.120Z,44.58
2019-03-15T23:04:18.089Z,48.08
2019-03-15T23:06:48.899Z,45.38
2019-03-15T23:09:19.786Z,49.45
2019-03-15T23:11:50.721Z,44.70
2019-03-15T23:14:21.553Z,41.68
2019-03-15T23:16:52.479Z,45.75
2019-03-15T23:19:23.425Z,40.10
2019-03-15T23:21:55.333Z,40.67
2019-03-15T23:24:26.149Z,42.30
2019-03-15T23:26:57.137Z,44.35
2019-03-15T23:29:28.030Z,41.70
2019-03-15T23:31:59.034Z,42.50
2019-03-15T23:34:30.135Z,42.13
2019-03-15T23:37:01.268Z,46.98
2019-03-15T23:39:32.250Z,39.80
2019-03-15T23:42:03.363Z,37.63
2019-03-15T23:44:35.208Z,45.43
2019-03-15T23:47:06.106Z,40.00
2019-03-15T23:49:37.155Z,39.63
2019-03-15T23:52:08.270Z,41.30
2019-03-15T23:54:39.163Z,39.15
2019-03-15T23:57:10.061Z,38.95
2019-03-15T23:59:40.913Z,40.38
